Maidstone, United Kingdom
Current Conditions -  °F | °C
As of 8:20 PM on Thursday 27 Nov 2014 (Local Time) from EGKB Reporting Station
Scattered Clouds Scattered Clouds  
Wind Chill: 45°   Ceiling: Unl
Heat Index: 48°   Visibility: 6mi
Dew Point: 46°   Wind: 7mph
Humidity: 93%   Direction: 100°E
Pressure: 29.59"   Gusts: NA
Location:  51.27°N, 0.52°E
Report Text: EGKB 272020Z 10006KT 9999 SCT004 09/08 Q1002
Loading
Personal Weather Stations






























Interactive Weather Map New forecast layout! Learn more

10-Day Weather Forecast

Advertisements
Track Severe Weather on mobile